createdAt,value
2022-08-31T03:34:01.477Z,83.07
2022-08-31T03:39:03.332Z,83.07
2022-08-31T03:44:05.149Z,82.09
2022-08-31T03:49:06.901Z,82.09
2022-08-31T03:54:08.584Z,84.66
2022-08-31T03:59:10.250Z,84.66
2022-08-31T04:04:12.240Z,83.16
2022-08-31T04:09:13.892Z,83.16
2022-08-31T04:14:15.950Z,86.81
2022-08-31T04:19:17.687Z,86.81
2022-08-31T04:24:19.326Z,84.74
2022-08-31T04:29:21.080Z,84.74
2022-08-31T04:34:23.086Z,84.81
2022-08-31T04:39:24.988Z,84.81
2022-08-31T04:44:26.702Z,87.76
2022-08-31T04:49:28.631Z,83.95
2022-08-31T04:54:30.268Z,83.95
2022-08-31T04:59:32.065Z,87.76
2022-08-31T05:04:33.743Z,87.76
2022-08-31T05:09:35.392Z,86.52
2022-08-31T05:14:37.586Z,86.52
2022-08-31T05:19:41.547Z,90.98
2022-08-31T05:24:43.612Z,90.98
2022-08-31T05:29:45.361Z,86.5
2022-08-31T05:34:48.475Z,86.5
2022-08-31T05:39:50.232Z,86.01
2022-08-31T05:44:51.947Z,86.01
2022-08-31T05:49:53.510Z,81.83
2022-08-31T05:54:55.153Z,81.83
2022-08-31T05:59:59.278Z,83.25
2022-08-31T06:05:01.199Z,81.34
2022-08-31T06:10:03.348Z,81.34
2022-08-31T06:15:05.673Z,78.21
2022-08-31T06:25:18.110Z,76.85
2022-08-31T06:30:19.842Z,76.85
2022-08-31T06:35:21.752Z,76.1
2022-08-31T06:40:24.536Z,76.1
2022-08-31T06:45:26.594Z,74.55
2022-08-31T06:50:28.482Z,74.55
2022-08-31T06:55:30.152Z,71.91
2022-08-31T07:00:31.839Z,71.91
2022-08-31T07:05:37.217Z,66.86
2022-08-31T07:10:39.278Z,66.86
2022-08-31T07:15:41.406Z,71.03
2022-08-31T07:20:43.250Z,67.94
2022-08-31T07:25:45.894Z,67.94
2022-08-31T07:30:47.945Z,58.19
2022-08-31T07:35:49.984Z,58.19
2022-08-31T07:40:52.034Z,50.84
2022-08-31T07:45:55.339Z,50.84
2022-08-31T07:50:58.066Z,56.74
2022-08-31T07:55:59.828Z,56.74
2022-08-31T08:01:01.666Z,57.49
2022-08-31T08:06:03.640Z,57.49
2022-08-31T08:11:05.775Z,55.37
2022-08-31T08:16:07.658Z,55.37
2022-08-31T08:21:09.776Z,58.77
2022-08-31T08:31:18.944Z,49.67
2022-08-31T08:36:21.090Z,52.8
2022-08-31T08:41:23.689Z,52.8
2022-08-31T08:51:37.944Z,53.88
2022-08-31T08:56:39.868Z,51.57
2022-08-31T09:01:44.223Z,51.57
2022-08-31T09:06:54.751Z,48.27
2022-08-31T09:12:01.915Z,48.27
2022-08-31T09:17:08.552Z,50.42
2022-08-31T09:22:10.217Z,50.42
2022-08-31T09:27:12.858Z,45.35
2022-08-31T09:32:16.429Z,45.35
2022-08-31T09:37:19.706Z,44.57
2022-08-31T09:42:28.007Z,44.57
2022-08-31T09:47:35.105Z,40.14
2022-08-31T09:52:37.240Z,41.09
2022-08-31T09:57:42.683Z,41.09
2022-08-31T10:02:44.941Z,42.47
2022-08-31T10:07:50.386Z,42.47
2022-08-31T10:12:54.176Z,44.43
2022-08-31T10:17:57.932Z,44.43
2022-08-31T10:28:08.582Z,40.87
2022-08-31T10:33:13.545Z,41.6
2022-08-31T10:38:20.617Z,41.6
2022-08-31T10:48:27.734Z,38.97
2022-08-31T10:53:40.481Z,40.65
2022-08-31T10:58:48.755Z,40.4
2022-08-31T11:09:01.138Z,40.55
2022-08-31T11:24:37.798Z,39.21
2022-08-31T11:29:43.303Z,38.17
2022-08-31T11:34:46.615Z,38.17
2022-08-31T11:39:48.247Z,40.69
2022-08-31T11:44:59.574Z,40.69
2022-08-31T11:50:05.445Z,38.64
2022-08-31T11:55:12.273Z,38.64
2022-08-31T12:00:17.743Z,36.39
2022-08-31T12:10:32.063Z,43.38
2022-08-31T12:20:47.984Z,42.53
2022-08-31T12:25:54.324Z,43.56
2022-08-31T12:30:57.869Z,43.56
2022-08-31T12:41:09.825Z,39.29
2022-08-31T12:56:32.822Z,38.21
2022-08-31T13:01:39.072Z,39.29
2022-08-31T13:06:41.676Z,39.29
2022-08-31T13:16:50.579Z,35.16
2022-08-31T13:21:54.579Z,36.16
2022-08-31T13:27:02.595Z,36.16
2022-08-31T13:32:04.462Z,43.96
2022-08-31T13:37:06.258Z,43.96
2022-08-31T13:42:09.431Z,40.39
2022-08-31T13:47:15.449Z,40.39
2022-08-31T13:52:19.831Z,37.31
2022-08-31T13:57:23.158Z,37.31
2022-08-31T14:12:45.977Z,37.21
2022-08-31T14:22:54.883Z,37.82
2022-08-31T14:27:56.504Z,36.34
2022-08-31T14:32:58.293Z,36.34
2022-08-31T14:37:59.957Z,39.01
2022-08-31T14:43:01.993Z,39.01
2022-08-31T14:48:03.693Z,39.47
2022-08-31T14:53:05.641Z,39.47
2022-08-31T14:58:09.659Z,39.75
2022-08-31T15:03:13.283Z,39.75
2022-08-31T15:08:19.906Z,41.67
2022-08-31T15:13:33.594Z,41.54
2022-08-31T15:18:35.619Z,41.54
2022-08-31T15:23:37.713Z,42.09
2022-08-31T15:28:40.854Z,42.09
2022-08-31T15:33:42.519Z,43.37
2022-08-31T15:38:44.797Z,43.37
2022-08-31T15:43:46.552Z,45.93
2022-08-31T15:48:48.259Z,45.93
2022-08-31T15:58:57.203Z,47.5
2022-08-31T16:03:59.839Z,49.67
2022-08-31T16:09:01.884Z,49.67
2022-08-31T16:14:03.841Z,50.17
2022-08-31T16:19:06.143Z,50.21
2022-08-31T16:24:08.235Z,50.21
2022-08-31T16:29:12.068Z,52.05
2022-08-31T16:34:13.911Z,52.05
2022-08-31T16:39:15.940Z,52.38
2022-08-31T16:44:20.548Z,52.38
2022-08-31T16:49:22.715Z,53.37
2022-08-31T16:54:24.468Z,53.37
2022-08-31T16:59:27.627Z,56.55
2022-08-31T17:09:35.124Z,59.53
2022-08-31T17:14:38.029Z,59.53
2022-08-31T17:19:41.691Z,61.11
2022-08-31T17:24:45.408Z,61.11
2022-08-31T17:29:48.270Z,63.12
2022-08-31T17:34:51.033Z,63.98
2022-08-31T17:39:54.217Z,63.98
2022-08-31T17:44:56.213Z,64.5
2022-08-31T17:49:58.155Z,64.5
2022-08-31T17:54:59.957Z,61.28
2022-08-31T18:00:03.751Z,61.28
2022-08-31T18:10:12.290Z,65.85
2022-08-31T18:15:14.187Z,66.98
2022-08-31T18:20:16.112Z,66.98
2022-08-31T18:25:17.936Z,63.79
2022-08-31T18:30:19.811Z,63.79
2022-08-31T18:35:21.614Z,63.09
2022-08-31T18:40:23.973Z,63.09
2022-08-31T18:45:26.258Z,62.14
2022-08-31T18:50:30.080Z,61.8
2022-08-31T18:55:36.283Z,61.8
2022-08-31T19:00:38.782Z,61.81
2022-08-31T19:05:41.452Z,61.81
2022-08-31T19:10:43.749Z,60.4
2022-08-31T19:15:46.318Z,60.4
2022-08-31T19:20:49.231Z,62.27
2022-08-31T19:25:51.397Z,62.27
2022-08-31T19:30:54.043Z,59.14
2022-08-31T19:35:57.961Z,59.14
2022-08-31T19:46:13.182Z,58.71
2022-08-31T19:51:16.931Z,57.95
2022-08-31T19:56:21.030Z,58.34
2022-08-31T20:01:24.698Z,58.34
2022-08-31T20:06:27.019Z,61.49
2022-08-31T20:11:29.578Z,61.49
2022-08-31T20:16:34.873Z,62.19
2022-08-31T20:21:37.715Z,62.19
2022-08-31T20:31:48.560Z,62.2
2022-08-31T20:36:51.171Z,63.16
2022-08-31T20:41:54.435Z,63.16
2022-08-31T20:46:57.447Z,64.62
2022-08-31T20:52:01.708Z,64.62
2022-08-31T20:57:05.789Z,64.62
2022-08-31T21:02:08.169Z,64.62
2022-08-31T21:07:10.560Z,64.62
2022-08-31T21:12:18.633Z,64.62
2022-08-31T21:17:22.877Z,64.62
2022-08-31T21:22:24.595Z,64.62
2022-08-31T21:27:26.312Z,64.62
2022-08-31T21:32:28.069Z,64.62
2022-08-31T21:37:29.749Z,64.62
2022-08-31T21:42:31.644Z,64.62
